sensor_id;sensor_type;location;lat;lon;timestamp;pressure;altitude;pressure_sealevel;temperature;humidity
76229;BME280;65021;53.174;18.160;2024-03-17T00:01:11;101115.35;;;3.30;69.60
76229;BME280;65021;53.174;18.160;2024-03-17T00:03:58;101111.83;;;3.32;69.27
76229;BME280;65021;53.174;18.160;2024-03-17T00:06:25;101104.85;;;3.30;69.11
76229;BME280;65021;53.174;18.160;2024-03-17T00:08:51;101105.69;;;3.30;68.60
76229;BME280;65021;53.174;18.160;2024-03-17T00:11:18;101108.35;;;3.34;68.09
76229;BME280;65021;53.174;18.160;2024-03-17T00:13:44;101105.20;;;3.33;68.21
76229;BME280;65021;53.174;18.160;2024-03-17T00:16:11;101106.75;;;3.31;68.18
76229;BME280;65021;53.174;18.160;2024-03-17T00:18:39;101103.01;;;3.30;68.17
76229;BME280;65021;53.174;18.160;2024-03-17T00:21:07;101096.92;;;3.27;68.02
76229;BME280;65021;53.174;18.160;2024-03-17T00:23:34;101099.86;;;3.26;68.10
76229;BME280;65021;53.174;18.160;2024-03-17T00:26:01;101097.39;;;3.26;68.13
76229;BME280;65021;53.174;18.160;2024-03-17T00:28:28;101095.68;;;3.23;68.00
76229;BME280;65021;53.174;18.160;2024-03-17T00:30:54;101095.48;;;3.22;67.65
76229;BME280;65021;53.174;18.160;2024-03-17T00:33:21;101090.84;;;3.24;67.55
76229;BME280;65021;53.174;18.160;2024-03-17T00:35:48;101086.79;;;3.27;67.68
76229;BME280;65021;53.174;18.160;2024-03-17T00:38:14;101090.27;;;3.34;67.45
76229;BME280;65021;53.174;18.160;2024-03-17T00:40:41;101088.34;;;3.38;67.77
76229;BME280;65021;53.174;18.160;2024-03-17T00:43:08;101087.94;;;3.43;67.58
76229;BME280;65021;53.174;18.160;2024-03-17T00:45:34;101086.14;;;3.49;67.89
76229;BME280;65021;53.174;18.160;2024-03-17T00:48:00;101084.95;;;3.55;67.49
76229;BME280;65021;53.174;18.160;2024-03-17T00:50:27;101084.45;;;3.62;67.74
76229;BME280;65021;53.174;18.160;2024-03-17T00:52:53;101083.31;;;3.66;67.17
76229;BME280;65021;53.174;18.160;2024-03-17T00:55:20;101088.77;;;3.72;67.36
76229;BME280;65021;53.174;18.160;2024-03-17T00:57:48;101083.79;;;3.75;67.00
76229;BME280;65021;53.174;18.160;2024-03-17T01:00:14;101083.02;;;3.78;67.52
76229;BME280;65021;53.174;18.160;2024-03-17T01:02:41;101086.64;;;3.82;67.53
76229;BME280;65021;53.174;18.160;2024-03-17T01:05:08;101087.16;;;3.86;67.04
76229;BME280;65021;53.174;18.160;2024-03-17T01:07:35;101086.40;;;3.90;67.14
76229;BME280;65021;53.174;18.160;2024-03-17T01:10:01;101081.11;;;3.93;67.40
76229;BME280;65021;53.174;18.160;2024-03-17T01:12:28;101079.58;;;3.96;67.44
76229;BME280;65021;53.174;18.160;2024-03-17T01:14:54;101077.82;;;3.99;67.38
76229;BME280;65021;53.174;18.160;2024-03-17T01:17:21;101077.50;;;4.03;66.87
76229;BME280;65021;53.174;18.160;2024-03-17T01:19:48;101077.71;;;4.07;67.21
76229;BME280;65021;53.174;18.160;2024-03-17T01:22:14;101078.27;;;4.09;67.25
76229;BME280;65021;53.174;18.160;2024-03-17T01:24:41;101077.06;;;4.10;67.53
76229;BME280;65021;53.174;18.160;2024-03-17T01:27:14;101080.41;;;4.11;67.37
76229;BME280;65021;53.174;18.160;2024-03-17T01:29:43;101077.02;;;4.12;67.34
76229;BME280;65021;53.174;18.160;2024-03-17T01:32:10;101078.42;;;4.14;66.99
76229;BME280;65021;53.174;18.160;2024-03-17T01:34:37;101075.91;;;4.18;66.95
76229;BME280;65021;53.174;18.160;2024-03-17T01:37:04;101074.47;;;4.21;67.05
76229;BME280;65021;53.174;18.160;2024-03-17T01:39:31;101075.52;;;4.25;66.96
76229;BME280;65021;53.174;18.160;2024-03-17T01:41:58;101072.77;;;4.29;67.06
76229;BME280;65021;53.174;18.160;2024-03-17T01:44:27;101073.50;;;4.32;66.92
76229;BME280;65021;53.174;18.160;2024-03-17T01:46:55;101067.75;;;4.34;67.30
76229;BME280;65021;53.174;18.160;2024-03-17T01:49:23;101061.30;;;4.35;67.29
76229;BME280;65021;53.174;18.160;2024-03-17T01:51:50;101061.02;;;4.36;67.40
76229;BME280;65021;53.174;18.160;2024-03-17T01:54:17;101064.23;;;4.38;67.78
76229;BME280;65021;53.174;18.160;2024-03-17T01:56:43;101061.30;;;4.39;67.85
76229;BME280;65021;53.174;18.160;2024-03-17T01:59:10;101063.55;;;4.40;67.87
76229;BME280;65021;53.174;18.160;2024-03-17T02:01:37;101058.68;;;4.41;68.25
76229;BME280;65021;53.174;18.160;2024-03-17T02:04:05;101067.18;;;4.41;68.29
76229;BME280;65021;53.174;18.160;2024-03-17T02:06:32;101066.95;;;4.42;68.80
76229;BME280;65021;53.174;18.160;2024-03-17T02:08:59;101066.36;;;4.41;68.82
76229;BME280;65021;53.174;18.160;2024-03-17T02:11:28;101062.65;;;4.40;69.04
76229;BME280;65021;53.174;18.160;2024-03-17T02:13:56;101065.29;;;4.40;69.21
76229;BME280;65021;53.174;18.160;2024-03-17T02:16:25;101062.54;;;4.40;69.14
76229;BME280;65021;53.174;18.160;2024-03-17T02:18:57;101064.66;;;4.39;69.25
76229;BME280;65021;53.174;18.160;2024-03-17T02:21:25;101060.36;;;4.38;69.28
76229;BME280;65021;53.174;18.160;2024-03-17T02:23:56;101059.94;;;4.38;69.30
76229;BME280;65021;53.174;18.160;2024-03-17T02:26:25;101063.95;;;4.38;69.04
76229;BME280;65021;53.174;18.160;2024-03-17T02:28:52;101061.20;;;4.39;69.13
76229;BME280;65021;53.174;18.160;2024-03-17T02:31:18;101058.25;;;4.38;68.87
76229;BME280;65021;53.174;18.160;2024-03-17T02:33:46;101059.14;;;4.37;68.92
76229;BME280;65021;53.174;18.160;2024-03-17T02:36:12;101055.01;;;4.37;68.55
76229;BME280;65021;53.174;18.160;2024-03-17T02:38:40;101055.60;;;4.38;68.12
76229;BME280;65021;53.174;18.160;2024-03-17T02:41:26;101056.74;;;4.40;67.62
76229;BME280;65021;53.174;18.160;2024-03-17T02:43:53;101055.73;;;4.41;67.96
76229;BME280;65021;53.174;18.160;2024-03-17T02:46:19;101052.64;;;4.41;67.52
76229;BME280;65021;53.174;18.160;2024-03-17T02:48:49;101049.98;;;4.41;68.14
76229;BME280;65021;53.174;18.160;2024-03-17T02:51:18;101049.42;;;4.41;67.76
76229;BME280;65021;53.174;18.160;2024-03-17T02:53:46;101048.95;;;4.41;67.98
76229;BME280;65021;53.174;18.160;2024-03-17T02:56:14;101046.59;;;4.39;67.70
76229;BME280;65021;53.174;18.160;2024-03-17T02:58:46;101041.15;;;4.36;67.75
76229;BME280;65021;53.174;18.160;2024-03-17T03:01:13;101035.58;;;4.30;67.28
76229;BME280;65021;53.174;18.160;2024-03-17T03:03:41;101028.95;;;4.21;67.35
76229;BME280;65021;53.174;18.160;2024-03-17T03:06:08;101030.76;;;4.12;67.20
76229;BME280;65021;53.174;18.160;2024-03-17T03:08:40;101035.77;;;4.04;67.28
76229;BME280;65021;53.174;18.160;2024-03-17T03:11:11;101039.48;;;3.97;67.61
76229;BME280;65021;53.174;18.160;2024-03-17T03:13:42;101045.16;;;3.93;67.72
76229;BME280;65021;53.174;18.160;2024-03-17T03:16:11;101045.67;;;3.96;67.41
76229;BME280;65021;53.174;18.160;2024-03-17T03:18:38;101050.70;;;4.02;67.80
76229;BME280;65021;53.174;18.160;2024-03-17T03:21:08;101048.40;;;4.06;67.66
76229;BME280;65021;53.174;18.160;2024-03-17T03:23:34;101045.51;;;4.09;67.65
76229;BME280;65021;53.174;18.160;2024-03-17T03:26:02;101049.56;;;4.11;67.68
76229;BME280;65021;53.174;18.160;2024-03-17T03:28:31;101041.54;;;4.12;67.63
76229;BME280;65021;53.174;18.160;2024-03-17T03:30:58;101036.74;;;4.14;68.02
76229;BME280;65021;53.174;18.160;2024-03-17T03:33:25;101037.56;;;4.14;67.75
76229;BME280;65021;53.174;18.160;2024-03-17T03:35:54;101040.23;;;4.14;67.87
76229;BME280;65021;53.174;18.160;2024-03-17T03:38:22;101034.11;;;4.16;67.47
76229;BME280;65021;53.174;18.160;2024-03-17T03:40:49;101040.58;;;4.18;67.81
76229;BME280;65021;53.174;18.160;2024-03-17T03:43:15;101039.95;;;4.21;67.72
76229;BME280;65021;53.174;18.160;2024-03-17T03:45:43;101039.68;;;4.23;67.73
76229;BME280;65021;53.174;18.160;2024-03-17T03:48:09;101039.34;;;4.24;67.65
76229;BME280;65021;53.174;18.160;2024-03-17T03:50:38;101039.42;;;4.26;67.24
76229;BME280;65021;53.174;18.160;2024-03-17T03:53:05;101040.17;;;4.27;67.74
76229;BME280;65021;53.174;18.160;2024-03-17T03:55:32;101033.80;;;4.27;67.55
76229;BME280;65021;53.174;18.160;2024-03-17T03:57:59;101039.46;;;4.28;67.77
76229;BME280;65021;53.174;18.160;2024-03-17T04:00:25;101041.60;;;4.29;67.23
76229;BME280;65021;53.174;18.160;2024-03-17T04:02:56;101047.23;;;4.32;67.45
76229;BME280;65021;53.174;18.160;2024-03-17T04:05:23;101052.21;;;4.33;67.51
76229;BME280;65021;53.174;18.160;2024-03-17T04:07:49;101062.93;;;4.30;69.08
76229;BME280;65021;53.174;18.160;2024-03-17T04:10:16;101075.70;;;4.22;70.64
76229;BME280;65021;53.174;18.160;2024-03-17T04:12:45;101084.38;;;4.09;71.33
76229;BME280;65021;53.174;18.160;2024-03-17T04:15:11;101081.75;;;3.97;72.20
76229;BME280;65021;53.174;18.160;2024-03-17T04:17:38;101081.38;;;3.87;72.82
76229;BME280;65021;53.174;18.160;2024-03-17T04:20:06;101079.72;;;3.78;73.58
76229;BME280;65021;53.174;18.160;2024-03-17T04:22:40;101088.54;;;3.67;73.57
76229;BME280;65021;53.174;18.160;2024-03-17T04:25:07;101090.01;;;3.58;73.97
76229;BME280;65021;53.174;18.160;2024-03-17T04:27:35;101096.22;;;3.51;74.13
76229;BME280;65021;53.174;18.160;2024-03-17T04:30:03;101094.70;;;3.43;74.68
76229;BME280;65021;53.174;18.160;2024-03-17T04:32:32;101098.52;;;3.39;74.52
76229;BME280;65021;53.174;18.160;2024-03-17T04:34:59;101096.42;;;3.37;74.68
76229;BME280;65021;53.174;18.160;2024-03-17T04:37:26;101094.40;;;3.34;74.75
76229;BME280;65021;53.174;18.160;2024-03-17T04:39:52;101094.34;;;3.31;74.96
76229;BME280;65021;53.174;18.160;2024-03-17T04:42:19;101099.31;;;3.30;75.01
76229;BME280;65021;53.174;18.160;2024-03-17T04:44:46;101098.27;;;3.28;75.45
76229;BME280;65021;53.174;18.160;2024-03-17T04:47:13;101100.19;;;3.26;75.36
76229;BME280;65021;53.174;18.160;2024-03-17T04:49:40;101105.13;;;3.25;75.46
76229;BME280;65021;53.174;18.160;2024-03-17T04:52:07;101102.70;;;3.21;75.68
76229;BME280;65021;53.174;18.160;2024-03-17T04:54:34;101108.50;;;3.16;75.80
76229;BME280;65021;53.174;18.160;2024-03-17T04:57:01;101110.79;;;3.12;75.45
76229;BME280;65021;53.174;18.160;2024-03-17T04:59:28;101113.32;;;3.11;75.76
76229;BME280;65021;53.174;18.160;2024-03-17T05:01:55;101116.86;;;3.11;75.94
76229;BME280;65021;53.174;18.160;2024-03-17T05:04:21;101115.65;;;3.13;75.96
76229;BME280;65021;53.174;18.160;2024-03-17T05:06:48;101122.79;;;3.14;75.47
76229;BME280;65021;53.174;18.160;2024-03-17T05:09:17;101129.52;;;3.16;75.86
76229;BME280;65021;53.174;18.160;2024-03-17T05:11:43;101132.63;;;3.17;75.74
76229;BME280;65021;53.174;18.160;2024-03-17T05:14:11;101137.35;;;3.21;75.59
76229;BME280;65021;53.174;18.160;2024-03-17T05:16:38;101137.48;;;3.22;75.56
76229;BME280;65021;53.174;18.160;2024-03-17T05:19:04;101144.09;;;3.25;75.06
76229;BME280;65021;53.174;18.160;2024-03-17T05:21:31;101147.06;;;3.27;75.06
76229;BME280;65021;53.174;18.160;2024-03-17T05:24:01;101152.25;;;3.31;74.86
76229;BME280;65021;53.174;18.160;2024-03-17T05:26:27;101157.11;;;3.35;74.70
76229;BME280;65021;53.174;18.160;2024-03-17T05:28:54;101161.36;;;3.36;74.53
76229;BME280;65021;53.174;18.160;2024-03-17T05:31:21;101168.30;;;3.39;74.20
76229;BME280;65021;53.174;18.160;2024-03-17T05:33:48;101168.13;;;3.42;73.94
76229;BME280;65021;53.174;18.160;2024-03-17T05:36:15;101170.10;;;3.45;73.76
76229;BME280;65021;53.174;18.160;2024-03-17T05:38:42;101168.98;;;3.47;73.84
76229;BME280;65021;53.174;18.160;2024-03-17T05:41:09;101173.35;;;3.49;73.65
76229;BME280;65021;53.174;18.160;2024-03-17T05:43:37;101182.68;;;3.51;73.16
76229;BME280;65021;53.174;18.160;2024-03-17T05:46:06;101182.80;;;3.56;73.16
76229;BME280;65021;53.174;18.160;2024-03-17T05:48:34;101181.85;;;3.58;72.87
76229;BME280;65021;53.174;18.160;2024-03-17T05:51:01;101183.43;;;3.60;72.28
76229;BME280;65021;53.174;18.160;2024-03-17T05:53:29;101184.19;;;3.62;72.23
76229;BME280;65021;53.174;18.160;2024-03-17T05:55:55;101182.90;;;3.66;72.51
76229;BME280;65021;53.174;18.160;2024-03-17T05:58:21;101174.57;;;3.70;72.38
76229;BME280;65021;53.174;18.160;2024-03-17T06:00:49;101179.50;;;3.74;72.04
76229;BME280;65021;53.174;18.160;2024-03-17T06:03:15;101182.02;;;3.77;71.46
76229;BME280;65021;53.174;18.160;2024-03-17T06:05:43;101185.20;;;3.80;71.48
76229;BME280;65021;53.174;18.160;2024-03-17T06:08:13;101184.58;;;3.82;71.20
76229;BME280;65021;53.174;18.160;2024-03-17T06:10:47;101184.55;;;3.83;70.54
76229;BME280;65021;53.174;18.160;2024-03-17T06:13:14;101186.48;;;3.83;71.05
76229;BME280;65021;53.174;18.160;2024-03-17T06:15:44;101188.09;;;3.84;70.41
76229;BME280;65021;53.174;18.160;2024-03-17T06:18:12;101194.79;;;3.84;70.11
76229;BME280;65021;53.174;18.160;2024-03-17T06:20:41;101195.70;;;3.86;70.20
76229;BME280;65021;53.174;18.160;2024-03-17T06:23:12;101195.39;;;3.87;69.74
76229;BME280;65021;53.174;18.160;2024-03-17T06:25:45;101193.22;;;3.89;69.41
76229;BME280;65021;53.174;18.160;2024-03-17T06:28:14;101192.80;;;3.92;69.77
76229;BME280;65021;53.174;18.160;2024-03-17T06:30:41;101190.42;;;3.94;68.38
76229;BME280;65021;53.174;18.160;2024-03-17T06:33:11;101190.14;;;4.00;68.80
76229;BME280;65021;53.174;18.160;2024-03-17T06:35:39;101198.91;;;4.05;68.75
76229;BME280;65021;53.174;18.160;2024-03-17T06:38:06;101197.52;;;4.10;68.86
76229;BME280;65021;53.174;18.160;2024-03-17T06:40:37;101206.02;;;4.14;68.25
76229;BME280;65021;53.174;18.160;2024-03-17T06:43:04;101207.09;;;4.16;68.20
76229;BME280;65021;53.174;18.160;2024-03-17T06:45:31;101211.00;;;4.18;67.84
76229;BME280;65021;53.174;18.160;2024-03-17T06:47:57;101211.59;;;4.18;67.97
76229;BME280;65021;53.174;18.160;2024-03-17T06:50:24;101212.30;;;4.20;67.85
76229;BME280;65021;53.174;18.160;2024-03-17T06:52:50;101215.89;;;4.22;68.19
76229;BME280;65021;53.174;18.160;2024-03-17T06:55:18;101220.14;;;4.27;68.12
76229;BME280;65021;53.174;18.160;2024-03-17T06:57:47;101220.46;;;4.29;67.80
76229;BME280;65021;53.174;18.160;2024-03-17T07:00:14;101222.05;;;4.32;67.28
76229;BME280;65021;53.174;18.160;2024-03-17T07:02:44;101223.60;;;4.33;67.93
76229;BME280;65021;53.174;18.160;2024-03-17T07:05:14;101220.34;;;4.34;67.75
76229;BME280;65021;53.174;18.160;2024-03-17T07:07:41;101227.77;;;4.38;67.38
76229;BME280;65021;53.174;18.160;2024-03-17T07:10:09;101230.41;;;4.40;67.98
76229;BME280;65021;53.174;18.160;2024-03-17T07:12:38;101239.14;;;4.45;68.23
76229;BME280;65021;53.174;18.160;2024-03-17T07:15:05;101238.58;;;4.48;68.07
76229;BME280;65021;53.174;18.160;2024-03-17T07:17:33;101241.17;;;4.50;67.83
76229;BME280;65021;53.174;18.160;2024-03-17T07:20:00;101246.52;;;4.46;67.23
76229;BME280;65021;53.174;18.160;2024-03-17T07:22:27;101248.98;;;4.45;67.53
76229;BME280;65021;53.174;18.160;2024-03-17T07:24:55;101250.52;;;4.55;68.06
76229;BME280;65021;53.174;18.160;2024-03-17T07:27:27;101255.04;;;4.58;67.56
76229;BME280;65021;53.174;18.160;2024-03-17T07:29:54;101261.13;;;4.61;68.02
76229;BME280;65021;53.174;18.160;2024-03-17T07:32:21;101257.30;;;4.66;68.30
76229;BME280;65021;53.174;18.160;2024-03-17T07:34:49;101261.91;;;4.74;68.10
76229;BME280;65021;53.174;18.160;2024-03-17T07:37:19;101262.80;;;4.81;67.63
76229;BME280;65021;53.174;18.160;2024-03-17T07:39:45;101264.31;;;4.78;67.93
76229;BME280;65021;53.174;18.160;2024-03-17T07:42:15;101269.64;;;4.78;67.79
76229;BME280;65021;53.174;18.160;2024-03-17T07:44:45;101265.64;;;4.92;68.36
76229;BME280;65021;53.174;18.160;2024-03-17T07:47:12;101261.30;;;5.10;68.37
76229;BME280;65021;53.174;18.160;2024-03-17T07:49:38;101262.65;;;5.42;68.24
76229;BME280;65021;53.174;18.160;2024-03-17T07:52:05;101259.34;;;5.65;66.96
76229;BME280;65021;53.174;18.160;2024-03-17T07:54:32;101265.66;;;5.74;66.34
76229;BME280;65021;53.174;18.160;2024-03-17T07:57:01;101269.02;;;5.82;66.27
76229;BME280;65021;53.174;18.160;2024-03-17T07:59:28;101277.89;;;5.85;65.14
76229;BME280;65021;53.174;18.160;2024-03-17T08:01:56;101279.67;;;5.79;65.67
76229;BME280;65021;53.174;18.160;2024-03-17T08:04:23;101286.45;;;5.81;65.67
76229;BME280;65021;53.174;18.160;2024-03-17T08:06:49;101294.75;;;5.59;65.52
76229;BME280;65021;53.174;18.160;2024-03-17T08:09:15;101293.75;;;5.52;66.93
76229;BME280;65021;53.174;18.160;2024-03-17T08:11:42;101293.21;;;5.59;67.25
76229;BME280;65021;53.174;18.160;2024-03-17T08:14:13;101295.73;;;5.58;67.25
76229;BME280;65021;53.174;18.160;2024-03-17T08:16:42;101303.05;;;5.49;67.45
76229;BME280;65021;53.174;18.160;2024-03-17T08:19:08;101297.06;;;5.23;66.47
76229;BME280;65021;53.174;18.160;2024-03-17T08:21:35;101302.42;;;5.14;67.81
76229;BME280;65021;53.174;18.160;2024-03-17T08:24:01;101302.05;;;5.01;67.76
76229;BME280;65021;53.174;18.160;2024-03-17T08:26:29;101302.37;;;4.72;68.53
76229;BME280;65021;53.174;18.160;2024-03-17T08:28:57;101305.73;;;4.66;69.31
76229;BME280;65021;53.174;18.160;2024-03-17T08:31:24;101306.48;;;4.73;69.44
76229;BME280;65021;53.174;18.160;2024-03-17T08:33:51;101308.55;;;4.83;69.56
76229;BME280;65021;53.174;18.160;2024-03-17T08:36:18;101311.07;;;4.92;69.07
76229;BME280;65021;53.174;18.160;2024-03-17T08:38:48;101310.69;;;5.03;69.09
76229;BME280;65021;53.174;18.160;2024-03-17T08:41:15;101310.14;;;5.12;68.14
76229;BME280;65021;53.174;18.160;2024-03-17T08:43:42;101306.84;;;5.17;67.36
76229;BME280;65021;53.174;18.160;2024-03-17T08:46:10;101309.95;;;5.25;66.81
76229;BME280;65021;53.174;18.160;2024-03-17T08:48:39;101308.45;;;5.35;66.17
76229;BME280;65021;53.174;18.160;2024-03-17T08:51:07;101310.83;;;5.54;66.01
76229;BME280;65021;53.174;18.160;2024-03-17T08:53:34;101310.95;;;5.75;64.58
76229;BME280;65021;53.174;18.160;2024-03-17T08:56:03;101306.73;;;5.75;63.04
76229;BME280;65021;53.174;18.160;2024-03-17T08:58:29;101307.21;;;5.92;63.46
76229;BME280;65021;53.174;18.160;2024-03-17T09:00:56;101314.89;;;6.13;63.52
76229;BME280;65021;53.174;18.160;2024-03-17T09:03:22;101310.69;;;6.16;61.77
76229;BME280;65021;53.174;18.160;2024-03-17T09:05:50;101314.73;;;6.23;61.99
76229;BME280;65021;53.174;18.160;2024-03-17T09:08:22;101322.27;;;6.26;61.31
76229;BME280;65021;53.174;18.160;2024-03-17T09:10:51;101325.26;;;6.43;62.01
76229;BME280;65021;53.174;18.160;2024-03-17T09:13:23;101325.92;;;6.51;60.88
76229;BME280;65021;53.174;18.160;2024-03-17T09:15:57;101324.75;;;6.40;59.31
76229;BME280;65021;53.174;18.160;2024-03-17T09:18:27;101327.01;;;6.30;59.92
76229;BME280;65021;53.174;18.160;2024-03-17T09:21:04;101333.64;;;6.34;60.26
76229;BME280;65021;53.174;18.160;2024-03-17T09:23:32;101332.99;;;6.47;60.09
76229;BME280;65021;53.174;18.160;2024-03-17T09:26:06;101335.27;;;6.61;59.75
76229;BME280;65021;53.174;18.160;2024-03-17T09:28:36;101334.57;;;6.52;58.09
76229;BME280;65021;53.174;18.160;2024-03-17T09:31:03;101334.30;;;6.57;58.72
76229;BME280;65021;53.174;18.160;2024-03-17T09:33:34;101334.44;;;6.63;58.51
76229;BME280;65021;53.174;18.160;2024-03-17T09:36:06;101334.40;;;6.66;58.76
76229;BME280;65021;53.174;18.160;2024-03-17T09:38:34;101335.44;;;6.79;59.20
76229;BME280;65021;53.174;18.160;2024-03-17T09:41:01;101336.48;;;6.90;58.98
76229;BME280;65021;53.174;18.160;2024-03-17T09:43:31;101339.89;;;6.90;59.31
76229;BME280;65021;53.174;18.160;2024-03-17T09:45:58;101343.06;;;6.99;57.71
76229;BME280;65021;53.174;18.160;2024-03-17T09:48:26;101344.14;;;6.84;56.35
76229;BME280;65021;53.174;18.160;2024-03-17T09:50:59;101342.21;;;6.70;58.10
76229;BME280;65021;53.174;18.160;2024-03-17T09:53:28;101344.64;;;6.58;57.28
76229;BME280;65021;53.174;18.160;2024-03-17T09:58:25;101349.81;;;6.48;56.74
76229;BME280;65021;53.174;18.160;2024-03-17T10:00:51;101347.97;;;6.52;57.05
76229;BME280;65021;53.174;18.160;2024-03-17T10:03:47;101358.86;;;6.53;57.18
76229;BME280;65021;53.174;18.160;2024-03-17T10:06:30;101356.67;;;6.72;57.62
76229;BME280;65021;53.174;18.160;2024-03-17T10:08:58;101356.94;;;6.92;57.53
76229;BME280;65021;53.174;18.160;2024-03-17T10:11:34;101356.40;;;7.09;55.77
76229;BME280;65021;53.174;18.160;2024-03-17T10:14:08;101358.12;;;7.23;56.28
76229;BME280;65021;53.174;18.160;2024-03-17T10:16:37;101362.11;;;7.53;55.64
76229;BME280;65021;53.174;18.160;2024-03-17T10:19:11;101354.06;;;7.63;54.62
76229;BME280;65021;53.174;18.160;2024-03-17T10:26:37;101373.48;;;6.85;53.79
76229;BME280;65021;53.174;18.160;2024-03-17T10:29:36;101374.87;;;6.54;54.98
76229;BME280;65021;53.174;18.160;2024-03-17T10:34:39;101391.91;;;6.17;57.35
76229;BME280;65021;53.174;18.160;2024-03-17T10:37:09;101393.46;;;5.98;57.88
76229;BME280;65021;53.174;18.160;2024-03-17T10:39:43;101401.01;;;5.70;58.24
76229;BME280;65021;53.174;18.160;2024-03-17T10:42:11;101404.83;;;5.38;58.61
76229;BME280;65021;53.174;18.160;2024-03-17T10:44:39;101408.17;;;5.22;58.72
76229;BME280;65021;53.174;18.160;2024-03-17T10:47:07;101406.59;;;5.20;58.49
76229;BME280;65021;53.174;18.160;2024-03-17T10:49:42;101410.64;;;5.35;58.83
76229;BME280;65021;53.174;18.160;2024-03-17T10:52:16;101414.80;;;5.47;58.16
76229;BME280;65021;53.174;18.160;2024-03-17T10:54:52;101409.05;;;5.50;58.19
76229;BME280;65021;53.174;18.160;2024-03-17T10:57:37;101411.11;;;5.61;58.14
76229;BME280;65021;53.174;18.160;2024-03-17T11:00:07;101409.04;;;5.83;58.61
76229;BME280;65021;53.174;18.160;2024-03-17T11:02:35;101406.88;;;5.68;57.88
76229;BME280;65021;53.174;18.160;2024-03-17T11:07:46;101413.06;;;5.21;58.15
76229;BME280;65021;53.174;18.160;2024-03-17T11:10:25;101417.48;;;5.20;58.52
76229;BME280;65021;53.174;18.160;2024-03-17T11:13:00;101419.25;;;5.31;58.95
76229;BME280;65021;53.174;18.160;2024-03-17T11:20:40;101417.48;;;5.38;58.21
76229;BME280;65021;53.174;18.160;2024-03-17T11:23:08;101421.02;;;5.30;58.26
76229;BME280;65021;53.174;18.160;2024-03-17T11:25:39;101421.70;;;5.32;58.97
76229;BME280;65021;53.174;18.160;2024-03-17T11:28:08;101426.19;;;5.17;58.89
76229;BME280;65021;53.174;18.160;2024-03-17T11:30:42;101433.55;;;5.12;59.52
76229;BME280;65021;53.174;18.160;2024-03-17T11:41:43;101433.15;;;4.90;58.90
76229;BME280;65021;53.174;18.160;2024-03-17T11:47:00;101438.98;;;5.02;58.56
76229;BME280;65021;53.174;18.160;2024-03-17T11:49:34;101439.80;;;5.07;57.32
76229;BME280;65021;53.174;18.160;2024-03-17T11:52:08;101440.25;;;5.03;57.34
76229;BME280;65021;53.174;18.160;2024-03-17T11:54:36;101442.91;;;5.05;57.92
76229;BME280;65021;53.174;18.160;2024-03-17T11:57:07;101443.95;;;4.95;57.84
76229;BME280;65021;53.174;18.160;2024-03-17T11:59:36;101441.60;;;4.91;58.47
76229;BME280;65021;53.174;18.160;2024-03-17T12:04:52;101450.80;;;5.09;58.91
76229;BME280;65021;53.174;18.160;2024-03-17T12:07:21;101447.94;;;5.22;59.01
76229;BME280;65021;53.174;18.160;2024-03-17T12:09:52;101450.54;;;5.34;59.67
76229;BME280;65021;53.174;18.160;2024-03-17T12:12:27;101455.63;;;5.43;59.56
76229;BME280;65021;53.174;18.160;2024-03-17T12:15:15;101457.17;;;5.37;59.86
76229;BME280;65021;53.174;18.160;2024-03-17T12:17:43;101459.80;;;5.20;60.40
76229;BME280;65021;53.174;18.160;2024-03-17T12:20:20;101465.98;;;4.98;60.49
76229;BME280;65021;53.174;18.160;2024-03-17T12:22:48;101468.23;;;4.63;61.41
76229;BME280;65021;53.174;18.160;2024-03-17T12:25:18;101466.98;;;4.48;62.66
76229;BME280;65021;53.174;18.160;2024-03-17T12:27:46;101468.83;;;4.50;62.33
76229;BME280;65021;53.174;18.160;2024-03-17T12:30:15;101464.57;;;4.54;61.80
76229;BME280;65021;53.174;18.160;2024-03-17T12:32:44;101461.33;;;4.69;61.56
76229;BME280;65021;53.174;18.160;2024-03-17T12:35:15;101463.80;;;4.88;60.34
76229;BME280;65021;53.174;18.160;2024-03-17T12:37:44;101462.84;;;4.99;60.14
76229;BME280;65021;53.174;18.160;2024-03-17T12:40:18;101463.34;;;5.08;59.81
76229;BME280;65021;53.174;18.160;2024-03-17T12:42:49;101463.43;;;5.10;58.99
76229;BME280;65021;53.174;18.160;2024-03-17T12:45:21;101463.89;;;5.19;59.39
76229;BME280;65021;53.174;18.160;2024-03-17T12:47:49;101462.88;;;5.16;58.60
76229;BME280;65021;53.174;18.160;2024-03-17T12:50:17;101460.34;;;5.02;58.32
76229;BME280;65021;53.174;18.160;2024-03-17T12:52:54;101458.67;;;4.89;57.88
76229;BME280;65021;53.174;18.160;2024-03-17T12:55:22;101461.13;;;4.81;58.60
76229;BME280;65021;53.174;18.160;2024-03-17T12:58:09;101471.92;;;4.76;58.30
76229;BME280;65021;53.174;18.160;2024-03-17T13:01:05;101474.68;;;4.68;58.01
76229;BME280;65021;53.174;18.160;2024-03-17T13:03:34;101482.17;;;4.51;58.04
76229;BME280;65021;53.174;18.160;2024-03-17T13:06:02;101485.60;;;4.35;59.17
76229;BME280;65021;53.174;18.160;2024-03-17T13:08:36;101495.52;;;4.20;60.50
76229;BME280;65021;53.174;18.160;2024-03-17T13:11:03;101500.44;;;3.99;61.57
76229;BME280;65021;53.174;18.160;2024-03-17T13:13:35;101500.92;;;3.79;62.05
76229;BME280;65021;53.174;18.160;2024-03-17T13:16:02;101501.85;;;3.68;62.36
76229;BME280;65021;53.174;18.160;2024-03-17T13:18:30;101503.49;;;3.68;62.53
76229;BME280;65021;53.174;18.160;2024-03-17T13:20:57;101500.06;;;3.71;62.12
76229;BME280;65021;53.174;18.160;2024-03-17T13:23:25;101503.96;;;3.71;62.54
76229;BME280;65021;53.174;18.160;2024-03-17T13:25:52;101508.89;;;3.65;63.36
76229;BME280;65021;53.174;18.160;2024-03-17T13:28:18;101511.23;;;3.47;64.55
76229;BME280;65021;53.174;18.160;2024-03-17T13:30:45;101516.47;;;3.31;65.79